sensor_id;sensor_type;location;lat;lon;timestamp;temperature;humidity
63931;DHT22;50111;48.114;-2.066;2022-10-17T00:00:50;15.40;99.90
63931;DHT22;50111;48.114;-2.066;2022-10-17T00:03:16;15.40;99.90
63931;DHT22;50111;48.114;-2.066;2022-10-17T00:05:43;15.40;99.90
63931;DHT22;50111;48.114;-2.066;2022-10-17T00:08:09;15.40;99.90
63931;DHT22;50111;48.114;-2.066;2022-10-17T00:10:35;15.40;99.90
63931;DHT22;50111;48.114;-2.066;2022-10-17T00:13:01;15.40;99.90
63931;DHT22;50111;48.114;-2.066;2022-10-17T00:15:27;15.30;99.90
63931;DHT22;50111;48.114;-2.066;2022-10-17T00:17:53;15.40;99.90
63931;DHT22;50111;48.114;-2.066;2022-10-17T00:20:18;15.40;99.90
63931;DHT22;50111;48.114;-2.066;2022-10-17T00:22:44;15.40;99.90
63931;DHT22;50111;48.114;-2.066;2022-10-17T00:25:09;15.40;99.90
63931;DHT22;50111;48.114;-2.066;2022-10-17T00:27:39;15.40;99.90
63931;DHT22;50111;48.114;-2.066;2022-10-17T00:30:06;15.50;99.90
63931;DHT22;50111;48.114;-2.066;2022-10-17T00:32:32;15.50;99.90
63931;DHT22;50111;48.114;-2.066;2022-10-17T00:34:57;15.50;99.90
63931;DHT22;50111;48.114;-2.066;2022-10-17T00:37:23;15.60;99.90
63931;DHT22;50111;48.114;-2.066;2022-10-17T00:39:48;15.60;99.90
63931;DHT22;50111;48.114;-2.066;2022-10-17T00:42:14;15.60;99.90
63931;DHT22;50111;48.114;-2.066;2022-10-17T00:47:09;15.60;99.90
63931;DHT22;50111;48.114;-2.066;2022-10-17T00:49:38;15.70;99.90
63931;DHT22;50111;48.114;-2.066;2022-10-17T00:52:05;15.70;99.90
63931;DHT22;50111;48.114;-2.066;2022-10-17T00:54:33;15.70;99.90
63931;DHT22;50111;48.114;-2.066;2022-10-17T00:56:59;15.70;99.90
63931;DHT22;50111;48.114;-2.066;2022-10-17T00:59:25;15.70;99.90
63931;DHT22;50111;48.114;-2.066;2022-10-17T01:02:01;15.70;99.90
63931;DHT22;50111;48.114;-2.066;2022-10-17T01:04:27;15.70;99.90
63931;DHT22;50111;48.114;-2.066;2022-10-17T01:06:53;15.70;99.90
63931;DHT22;50111;48.114;-2.066;2022-10-17T01:09:18;15.80;99.90
63931;DHT22;50111;48.114;-2.066;2022-10-17T01:12:32;15.80;99.90
63931;DHT22;50111;48.114;-2.066;2022-10-17T01:22:58;15.80;99.90
63931;DHT22;50111;48.114;-2.066;2022-10-17T01:25:39;15.80;99.90
63931;DHT22;50111;48.114;-2.066;2022-10-17T01:33:37;15.90;99.90
63931;DHT22;50111;48.114;-2.066;2022-10-17T01:36:11;15.90;99.90
63931;DHT22;50111;48.114;-2.066;2022-10-17T01:38:49;15.90;99.90
63931;DHT22;50111;48.114;-2.066;2022-10-17T01:48:51;15.90;99.90
63931;DHT22;50111;48.114;-2.066;2022-10-17T01:51:20;15.90;99.90
63931;DHT22;50111;48.114;-2.066;2022-10-17T01:53:58;15.90;99.90
63931;DHT22;50111;48.114;-2.066;2022-10-17T01:56:25;15.90;99.90
63931;DHT22;50111;48.114;-2.066;2022-10-17T01:58:53;15.90;99.90
63931;DHT22;50111;48.114;-2.066;2022-10-17T02:01:20;15.90;99.90
63931;DHT22;50111;48.114;-2.066;2022-10-17T02:03:46;15.90;99.90
63931;DHT22;50111;48.114;-2.066;2022-10-17T02:06:12;15.90;99.90
63931;DHT22;50111;48.114;-2.066;2022-10-17T02:08:45;15.90;99.90
63931;DHT22;50111;48.114;-2.066;2022-10-17T02:11:15;15.90;99.90
63931;DHT22;50111;48.114;-2.066;2022-10-17T02:19:27;15.90;99.90
63931;DHT22;50111;48.114;-2.066;2022-10-17T02:24:49;15.90;99.90
63931;DHT22;50111;48.114;-2.066;2022-10-17T02:27:21;15.90;99.90
63931;DHT22;50111;48.114;-2.066;2022-10-17T02:29:49;15.90;99.90
63931;DHT22;50111;48.114;-2.066;2022-10-17T02:32:23;15.90;99.90
63931;DHT22;50111;48.114;-2.066;2022-10-17T02:34:51;15.90;99.90
63931;DHT22;50111;48.114;-2.066;2022-10-17T02:37:25;15.90;99.90
63931;DHT22;50111;48.114;-2.066;2022-10-17T02:39:51;15.90;99.90
63931;DHT22;50111;48.114;-2.066;2022-10-17T02:42:18;15.90;99.90
63931;DHT22;50111;48.114;-2.066;2022-10-17T02:44:44;15.90;99.90
63931;DHT22;50111;48.114;-2.066;2022-10-17T02:49:42;15.90;99.90
63931;DHT22;50111;48.114;-2.066;2022-10-17T02:54:51;16.00;99.90
63931;DHT22;50111;48.114;-2.066;2022-10-17T02:57:31;16.00;99.90
63931;DHT22;50111;48.114;-2.066;2022-10-17T03:00:00;16.00;99.90
63931;DHT22;50111;48.114;-2.066;2022-10-17T03:02:26;16.00;99.90
63931;DHT22;50111;48.114;-2.066;2022-10-17T03:04:52;16.00;99.90
63931;DHT22;50111;48.114;-2.066;2022-10-17T03:07:17;16.00;99.90
63931;DHT22;50111;48.114;-2.066;2022-10-17T03:09:43;16.00;99.90
63931;DHT22;50111;48.114;-2.066;2022-10-17T03:12:08;16.00;99.90
63931;DHT22;50111;48.114;-2.066;2022-10-17T03:14:34;16.00;99.90
63931;DHT22;50111;48.114;-2.066;2022-10-17T03:16:59;16.00;99.90
63931;DHT22;50111;48.114;-2.066;2022-10-17T03:19:25;16.00;99.90
63931;DHT22;50111;48.114;-2.066;2022-10-17T03:21:51;15.90;99.90
63931;DHT22;50111;48.114;-2.066;2022-10-17T03:24:16;16.00;99.90
63931;DHT22;50111;48.114;-2.066;2022-10-17T03:26:42;16.00;99.90
63931;DHT22;50111;48.114;-2.066;2022-10-17T03:29:07;16.00;99.90
63931;DHT22;50111;48.114;-2.066;2022-10-17T03:31:33;16.00;99.90
63931;DHT22;50111;48.114;-2.066;2022-10-17T03:34:01;15.90;99.90
63931;DHT22;50111;48.114;-2.066;2022-10-17T03:36:27;16.00;99.90
63931;DHT22;50111;48.114;-2.066;2022-10-17T03:38:53;16.00;99.90
63931;DHT22;50111;48.114;-2.066;2022-10-17T03:41:19;15.90;99.90
63931;DHT22;50111;48.114;-2.066;2022-10-17T03:43:44;15.90;99.90
63931;DHT22;50111;48.114;-2.066;2022-10-17T03:46:10;15.90;99.90
63931;DHT22;50111;48.114;-2.066;2022-10-17T03:48:35;15.90;99.90
63931;DHT22;50111;48.114;-2.066;2022-10-17T03:51:05;15.90;99.90
63931;DHT22;50111;48.114;-2.066;2022-10-17T03:53:30;15.90;99.90
63931;DHT22;50111;48.114;-2.066;2022-10-17T03:55:56;15.90;99.90
63931;DHT22;50111;48.114;-2.066;2022-10-17T03:58:22;15.90;99.90
63931;DHT22;50111;48.114;-2.066;2022-10-17T04:00:47;15.90;99.90
63931;DHT22;50111;48.114;-2.066;2022-10-17T04:03:13;15.90;99.90
63931;DHT22;50111;48.114;-2.066;2022-10-17T04:05:38;15.90;99.90
63931;DHT22;50111;48.114;-2.066;2022-10-17T04:08:04;15.80;99.90
63931;DHT22;50111;48.114;-2.066;2022-10-17T04:10:29;15.80;99.90
63931;DHT22;50111;48.114;-2.066;2022-10-17T04:12:55;15.80;99.90
63931;DHT22;50111;48.114;-2.066;2022-10-17T04:15:20;15.80;99.90
63931;DHT22;50111;48.114;-2.066;2022-10-17T04:17:46;15.80;99.90
63931;DHT22;50111;48.114;-2.066;2022-10-17T04:20:11;15.80;99.90
63931;DHT22;50111;48.114;-2.066;2022-10-17T04:22:37;15.80;99.90
63931;DHT22;50111;48.114;-2.066;2022-10-17T04:25:03;15.80;99.90
63931;DHT22;50111;48.114;-2.066;2022-10-17T04:27:28;15.80;99.90
63931;DHT22;50111;48.114;-2.066;2022-10-17T04:29:54;15.80;99.90
63931;DHT22;50111;48.114;-2.066;2022-10-17T04:32:19;15.80;99.90
63931;DHT22;50111;48.114;-2.066;2022-10-17T04:34:47;15.80;99.90
63931;DHT22;50111;48.114;-2.066;2022-10-17T04:37:13;15.80;99.90
63931;DHT22;50111;48.114;-2.066;2022-10-17T04:39:38;15.70;99.90
63931;DHT22;50111;48.114;-2.066;2022-10-17T04:42:04;15.70;99.90
63931;DHT22;50111;48.114;-2.066;2022-10-17T04:44:29;15.70;99.90
63931;DHT22;50111;48.114;-2.066;2022-10-17T04:46:55;15.70;99.90
63931;DHT22;50111;48.114;-2.066;2022-10-17T04:49:20;15.70;99.90
63931;DHT22;50111;48.114;-2.066;2022-10-17T04:51:46;15.70;99.90
63931;DHT22;50111;48.114;-2.066;2022-10-17T04:54:11;15.70;99.90
63931;DHT22;50111;48.114;-2.066;2022-10-17T04:56:37;15.70;99.90
63931;DHT22;50111;48.114;-2.066;2022-10-17T04:59:02;15.60;99.90
63931;DHT22;50111;48.114;-2.066;2022-10-17T05:01:28;15.70;99.90
63931;DHT22;50111;48.114;-2.066;2022-10-17T05:03:53;15.60;99.90
63931;DHT22;50111;48.114;-2.066;2022-10-17T05:06:23;15.60;99.90
63931;DHT22;50111;48.114;-2.066;2022-10-17T05:08:49;15.60;99.90
63931;DHT22;50111;48.114;-2.066;2022-10-17T05:11:16;15.60;99.90
63931;DHT22;50111;48.114;-2.066;2022-10-17T05:13:42;15.60;99.90
63931;DHT22;50111;48.114;-2.066;2022-10-17T05:16:07;15.60;99.90
63931;DHT22;50111;48.114;-2.066;2022-10-17T05:18:33;15.60;99.90
63931;DHT22;50111;48.114;-2.066;2022-10-17T05:20:58;15.60;99.90
63931;DHT22;50111;48.114;-2.066;2022-10-17T05:23:24;15.60;99.90
63931;DHT22;50111;48.114;-2.066;2022-10-17T05:25:53;15.60;99.90
63931;DHT22;50111;48.114;-2.066;2022-10-17T05:28:20;15.60;99.90
63931;DHT22;50111;48.114;-2.066;2022-10-17T05:30:45;15.60;99.90
63931;DHT22;50111;48.114;-2.066;2022-10-17T05:33:11;15.60;99.90
63931;DHT22;50111;48.114;-2.066;2022-10-17T05:35:36;15.50;99.90
63931;DHT22;50111;48.114;-2.066;2022-10-17T05:38:02;15.50;99.90
63931;DHT22;50111;48.114;-2.066;2022-10-17T05:40:27;15.50;99.90
63931;DHT22;50111;48.114;-2.066;2022-10-17T05:42:53;15.50;99.90
63931;DHT22;50111;48.114;-2.066;2022-10-17T05:45:18;15.50;99.90
63931;DHT22;50111;48.114;-2.066;2022-10-17T05:47:44;15.50;99.90
63931;DHT22;50111;48.114;-2.066;2022-10-17T05:50:10;15.50;99.90
63931;DHT22;50111;48.114;-2.066;2022-10-17T05:52:35;15.50;99.90
63931;DHT22;50111;48.114;-2.066;2022-10-17T05:55:02;15.50;99.90
63931;DHT22;50111;48.114;-2.066;2022-10-17T05:57:27;15.50;99.90
63931;DHT22;50111;48.114;-2.066;2022-10-17T05:59:53;15.50;99.90
63931;DHT22;50111;48.114;-2.066;2022-10-17T06:02:18;15.60;99.90
63931;DHT22;50111;48.114;-2.066;2022-10-17T06:04:44;15.60;99.90
63931;DHT22;50111;48.114;-2.066;2022-10-17T06:07:11;15.60;99.90
63931;DHT22;50111;48.114;-2.066;2022-10-17T06:09:37;15.60;99.90
63931;DHT22;50111;48.114;-2.066;2022-10-17T06:12:03;15.60;99.90
63931;DHT22;50111;48.114;-2.066;2022-10-17T06:14:28;15.60;99.90
63931;DHT22;50111;48.114;-2.066;2022-10-17T06:16:54;15.60;99.90
63931;DHT22;50111;48.114;-2.066;2022-10-17T06:19:19;15.60;99.90
63931;DHT22;50111;48.114;-2.066;2022-10-17T06:21:45;15.50;99.90
63931;DHT22;50111;48.114;-2.066;2022-10-17T06:24:10;15.60;99.90
63931;DHT22;50111;48.114;-2.066;2022-10-17T06:26:36;15.60;99.90
63931;DHT22;50111;48.114;-2.066;2022-10-17T06:29:01;15.60;99.90
63931;DHT22;50111;48.114;-2.066;2022-10-17T06:31:27;15.60;99.90
63931;DHT22;50111;48.114;-2.066;2022-10-17T06:33:53;15.60;99.90
63931;DHT22;50111;48.114;-2.066;2022-10-17T06:36:18;15.60;99.90
63931;DHT22;50111;48.114;-2.066;2022-10-17T06:38:44;15.50;99.90
63931;DHT22;50111;48.114;-2.066;2022-10-17T06:41:14;15.50;99.90
63931;DHT22;50111;48.114;-2.066;2022-10-17T06:43:40;15.50;99.90
63931;DHT22;50111;48.114;-2.066;2022-10-17T06:46:07;15.50;99.90
63931;DHT22;50111;48.114;-2.066;2022-10-17T06:48:33;15.50;99.90
63931;DHT22;50111;48.114;-2.066;2022-10-17T06:50:59;15.50;99.90
63931;DHT22;50111;48.114;-2.066;2022-10-17T06:53:28;15.50;99.90
63931;DHT22;50111;48.114;-2.066;2022-10-17T06:55:54;15.50;99.90
63931;DHT22;50111;48.114;-2.066;2022-10-17T06:58:22;15.50;99.90
63931;DHT22;50111;48.114;-2.066;2022-10-17T07:00:48;15.50;99.90
63931;DHT22;50111;48.114;-2.066;2022-10-17T07:03:13;15.50;99.90
63931;DHT22;50111;48.114;-2.066;2022-10-17T07:05:38;15.50;99.90
63931;DHT22;50111;48.114;-2.066;2022-10-17T07:08:04;15.50;99.90
63931;DHT22;50111;48.114;-2.066;2022-10-17T07:10:30;15.60;99.90
63931;DHT22;50111;48.114;-2.066;2022-10-17T07:13:02;15.50;99.90
63931;DHT22;50111;48.114;-2.066;2022-10-17T07:15:28;15.60;99.90
63931;DHT22;50111;48.114;-2.066;2022-10-17T07:17:53;15.60;99.90
63931;DHT22;50111;48.114;-2.066;2022-10-17T07:20:19;15.60;99.90
63931;DHT22;50111;48.114;-2.066;2022-10-17T07:22:44;15.70;99.90
63931;DHT22;50111;48.114;-2.066;2022-10-17T07:25:10;15.60;99.90
63931;DHT22;50111;48.114;-2.066;2022-10-17T07:27:35;15.70;99.90
63931;DHT22;50111;48.114;-2.066;2022-10-17T07:30:01;15.70;99.90
63931;DHT22;50111;48.114;-2.066;2022-10-17T07:32:27;15.70;99.90
63931;DHT22;50111;48.114;-2.066;2022-10-17T07:34:53;15.70;99.90
63931;DHT22;50111;48.114;-2.066;2022-10-17T07:37:18;15.70;99.90
63931;DHT22;50111;48.114;-2.066;2022-10-17T07:39:44;15.70;99.90
63931;DHT22;50111;48.114;-2.066;2022-10-17T07:42:09;15.70;99.90
63931;DHT22;50111;48.114;-2.066;2022-10-17T07:44:34;15.70;99.90
63931;DHT22;50111;48.114;-2.066;2022-10-17T07:47:00;15.80;99.90
63931;DHT22;50111;48.114;-2.066;2022-10-17T07:49:26;15.80;99.90
63931;DHT22;50111;48.114;-2.066;2022-10-17T07:51:51;15.80;99.90
63931;DHT22;50111;48.114;-2.066;2022-10-17T07:54:17;15.80;99.90
63931;DHT22;50111;48.114;-2.066;2022-10-17T07:56:42;15.80;99.90
63931;DHT22;50111;48.114;-2.066;2022-10-17T07:59:08;15.90;99.90
63931;DHT22;50111;48.114;-2.066;2022-10-17T08:01:34;15.90;99.90
63931;DHT22;50111;48.114;-2.066;2022-10-17T08:03:59;15.90;99.90
63931;DHT22;50111;48.114;-2.066;2022-10-17T08:06:25;15.80;99.90
63931;DHT22;50111;48.114;-2.066;2022-10-17T08:08:50;15.90;99.90
63931;DHT22;50111;48.114;-2.066;2022-10-17T08:11:16;15.80;99.90
63931;DHT22;50111;48.114;-2.066;2022-10-17T08:13:42;15.90;99.90
63931;DHT22;50111;48.114;-2.066;2022-10-17T08:16:08;15.80;99.90
63931;DHT22;50111;48.114;-2.066;2022-10-17T08:18:34;15.90;99.90
63931;DHT22;50111;48.114;-2.066;2022-10-17T08:21:00;15.80;99.90
63931;DHT22;50111;48.114;-2.066;2022-10-17T08:23:27;15.80;99.90
63931;DHT22;50111;48.114;-2.066;2022-10-17T08:25:52;15.80;99.90
63931;DHT22;50111;48.114;-2.066;2022-10-17T08:28:18;15.90;99.90
63931;DHT22;50111;48.114;-2.066;2022-10-17T08:30:43;15.90;99.90
63931;DHT22;50111;48.114;-2.066;2022-10-17T08:33:11;15.90;99.90
63931;DHT22;50111;48.114;-2.066;2022-10-17T08:35:37;16.00;99.90
63931;DHT22;50111;48.114;-2.066;2022-10-17T08:38:02;16.00;99.90
63931;DHT22;50111;48.114;-2.066;2022-10-17T08:40:29;16.10;99.90
63931;DHT22;50111;48.114;-2.066;2022-10-17T08:45:37;16.10;99.90
63931;DHT22;50111;48.114;-2.066;2022-10-17T08:48:11;16.10;99.90
63931;DHT22;50111;48.114;-2.066;2022-10-17T08:53:21;16.20;99.90
63931;DHT22;50111;48.114;-2.066;2022-10-17T08:55:49;16.30;99.90
63931;DHT22;50111;48.114;-2.066;2022-10-17T09:00:53;16.40;99.90
63931;DHT22;50111;48.114;-2.066;2022-10-17T09:04:04;16.40;99.90
63931;DHT22;50111;48.114;-2.066;2022-10-17T09:06:16;16.40;99.90
63931;DHT22;50111;48.114;-2.066;2022-10-17T09:14:01;16.50;99.90
63931;DHT22;50111;48.114;-2.066;2022-10-17T09:19:38;16.50;99.90
63931;DHT22;50111;48.114;-2.066;2022-10-17T09:21:45;16.50;99.90
63931;DHT22;50111;48.114;-2.066;2022-10-17T09:24:15;16.50;99.90
63931;DHT22;50111;48.114;-2.066;2022-10-17T09:26:43;16.60;99.90
63931;DHT22;50111;48.114;-2.066;2022-10-17T09:29:12;16.50;99.90
63931;DHT22;50111;48.114;-2.066;2022-10-17T09:31:39;16.60;99.90
63931;DHT22;50111;48.114;-2.066;2022-10-17T09:34:06;16.60;99.90
63931;DHT22;50111;48.114;-2.066;2022-10-17T09:36:34;16.60;99.90
63931;DHT22;50111;48.114;-2.066;2022-10-17T09:43:57;16.60;99.90
63931;DHT22;50111;48.114;-2.066;2022-10-17T09:46:31;16.60;99.90
63931;DHT22;50111;48.114;-2.066;2022-10-17T09:49:02;16.70;99.90
63931;DHT22;50111;48.114;-2.066;2022-10-17T09:51:29;16.70;99.90
63931;DHT22;50111;48.114;-2.066;2022-10-17T09:53:58;16.70;99.90
63931;DHT22;50111;48.114;-2.066;2022-10-17T09:56:25;16.60;99.90
63931;DHT22;50111;48.114;-2.066;2022-10-17T09:58:52;16.60;99.90
63931;DHT22;50111;48.114;-2.066;2022-10-17T10:01:21;16.60;99.90
63931;DHT22;50111;48.114;-2.066;2022-10-17T10:03:47;16.60;99.90
63931;DHT22;50111;48.114;-2.066;2022-10-17T10:06:14;16.70;99.90
63931;DHT22;50111;48.114;-2.066;2022-10-17T10:08:47;16.80;99.90
63931;DHT22;50111;48.114;-2.066;2022-10-17T10:11:14;16.70;99.90
63931;DHT22;50111;48.114;-2.066;2022-10-17T10:13:39;16.70;99.90
63931;DHT22;50111;48.114;-2.066;2022-10-17T10:16:39;16.70;99.90
63931;DHT22;50111;48.114;-2.066;2022-10-17T10:18:57;16.70;99.90
63931;DHT22;50111;48.114;-2.066;2022-10-17T10:21:24;16.70;99.90
63931;DHT22;50111;48.114;-2.066;2022-10-17T10:26:32;16.80;99.90
63931;DHT22;50111;48.114;-2.066;2022-10-17T10:29:03;16.90;99.90
63931;DHT22;50111;48.114;-2.066;2022-10-17T10:31:36;16.90;99.90
63931;DHT22;50111;48.114;-2.066;2022-10-17T10:34:10;17.00;99.90
63931;DHT22;50111;48.114;-2.066;2022-10-17T10:36:44;17.00;99.90
63931;DHT22;50111;48.114;-2.066;2022-10-17T10:39:23;17.10;99.90
63931;DHT22;50111;48.114;-2.066;2022-10-17T10:41:50;17.10;99.90
63931;DHT22;50111;48.114;-2.066;2022-10-17T10:44:23;17.10;99.90
63931;DHT22;50111;48.114;-2.066;2022-10-17T10:47:04;17.10;99.90
63931;DHT22;50111;48.114;-2.066;2022-10-17T10:49:30;17.00;99.90
63931;DHT22;50111;48.114;-2.066;2022-10-17T10:51:56;16.90;99.90
63931;DHT22;50111;48.114;-2.066;2022-10-17T10:54:25;17.00;99.90
63931;DHT22;50111;48.114;-2.066;2022-10-17T10:56:54;16.90;99.90
63931;DHT22;50111;48.114;-2.066;2022-10-17T10:59:22;16.90;99.90
63931;DHT22;50111;48.114;-2.066;2022-10-17T11:01:51;16.90;99.90
63931;DHT22;50111;48.114;-2.066;2022-10-17T11:04:29;16.90;99.90
63931;DHT22;50111;48.114;-2.066;2022-10-17T11:07:05;17.00;99.90
63931;DHT22;50111;48.114;-2.066;2022-10-17T11:09:34;17.00;99.90
63931;DHT22;50111;48.114;-2.066;2022-10-17T11:12:13;16.90;99.90
63931;DHT22;50111;48.114;-2.066;2022-10-17T11:14:43;16.90;99.90
63931;DHT22;50111;48.114;-2.066;2022-10-17T11:17:15;16.90;99.90
63931;DHT22;50111;48.114;-2.066;2022-10-17T11:22:25;17.00;99.90
63931;DHT22;50111;48.114;-2.066;2022-10-17T11:27:25;17.00;99.90
63931;DHT22;50111;48.114;-2.066;2022-10-17T11:29:52;17.10;99.90
63931;DHT22;50111;48.114;-2.066;2022-10-17T11:35:14;17.10;99.90
63931;DHT22;50111;48.114;-2.066;2022-10-17T11:37:38;17.20;99.90
63931;DHT22;50111;48.114;-2.066;2022-10-17T11:40:05;17.20;99.90
63931;DHT22;50111;48.114;-2.066;2022-10-17T11:42:33;17.30;99.90
63931;DHT22;50111;48.114;-2.066;2022-10-17T11:45:05;17.30;99.90
63931;DHT22;50111;48.114;-2.066;2022-10-17T11:52:36;17.30;99.90
63931;DHT22;50111;48.114;-2.066;2022-10-17T12:08:12;17.60;99.90
63931;DHT22;50111;48.114;-2.066;2022-10-17T12:11:23;17.60;99.90
63931;DHT22;50111;48.114;-2.066;2022-10-17T12:15:54;17.70;99.90
63931;DHT22;50111;48.114;-2.066;2022-10-17T12:18:22;17.70;99.90
63931;DHT22;50111;48.114;-2.066;2022-10-17T12:20:57;17.80;99.90
63931;DHT22;50111;48.114;-2.066;2022-10-17T12:23:26;17.90;99.90
63931;DHT22;50111;48.114;-2.066;2022-10-17T12:25:59;18.00;99.90
63931;DHT22;50111;48.114;-2.066;2022-10-17T12:28:26;17.90;99.90
63931;DHT22;50111;48.114;-2.066;2022-10-17T12:33:24;17.90;99.90
63931;DHT22;50111;48.114;-2.066;2022-10-17T12:38:36;17.90;99.90
63931;DHT22;50111;48.114;-2.066;2022-10-17T12:41:02;17.90;99.90
63931;DHT22;50111;48.114;-2.066;2022-10-17T12:53:49;17.90;99.90
63931;DHT22;50111;48.114;-2.066;2022-10-17T12:56:19;17.90;99.90
63931;DHT22;50111;48.114;-2.066;2022-10-17T12:58:47;17.90;99.90
63931;DHT22;50111;48.114;-2.066;2022-10-17T13:01:15;17.90;99.90
63931;DHT22;50111;48.114;-2.066;2022-10-17T13:03:42;17.80;99.90
63931;DHT22;50111;48.114;-2.066;2022-10-17T13:06:18;17.90;99.90
63931;DHT22;50111;48.114;-2.066;2022-10-17T13:08:46;17.90;99.90
63931;DHT22;50111;48.114;-2.066;2022-10-17T13:11:13;17.90;99.90
63931;DHT22;50111;48.114;-2.066;2022-10-17T13:13:47;17.90;99.90
63931;DHT22;50111;48.114;-2.066;2022-10-17T13:18:58;17.90;99.90
63931;DHT22;50111;48.114;-2.066;2022-10-17T13:21:24;18.00;99.90
63931;DHT22;50111;48.114;-2.066;2022-10-17T13:23:50;18.00;99.90
63931;DHT22;50111;48.114;-2.066;2022-10-17T13:26:22;18.00;99.90
63931;DHT22;50111;48.114;-2.066;2022-10-17T13:31:26;18.10;99.90
63931;DHT22;50111;48.114;-2.066;2022-10-17T13:33:54;18.10;99.90
63931;DHT22;50111;48.114;-2.066;2022-10-17T13:36:20;18.20;99.90
63931;DHT22;50111;48.114;-2.066;2022-10-17T13:38:45;18.20;99.90
63931;DHT22;50111;48.114;-2.066;2022-10-17T13:41:12;18.20;99.90
63931;DHT22;50111;48.114;-2.066;2022-10-17T13:43:38;18.20;99.90
63931;DHT22;50111;48.114;-2.066;2022-10-17T13:46:04;18.20;99.90
63931;DHT22;50111;48.114;-2.066;2022-10-17T13:48:32;18.20;99.90
63931;DHT22;50111;48.114;-2.066;2022-10-17T13:50:59;18.20;99.90
63931;DHT22;50111;48.114;-2.066;2022-10-17T13:53:38;18.30;99.90
63931;DHT22;50111;48.114;-2.066;2022-10-17T13:56:16;18.20;99.90
63931;DHT22;50111;48.114;-2.066;2022-10-17T13:58:43;18.20;99.90
63931;DHT22;50111;48.114;-2.066;2022-10-17T14:01:10;18.20;99.90
63931;DHT22;50111;48.114;-2.066;2022-10-17T14:03:36;18.20;99.90
63931;DHT22;50111;48.114;-2.066;2022-10-17T14:06:05;18.10;99.90
63931;DHT22;50111;48.114;-2.066;2022-10-17T14:08:32;18.10;99.90
63931;DHT22;50111;48.114;-2.066;2022-10-17T14:10:58;18.10;99.90
63931;DHT22;50111;48.114;-2.066;2022-10-17T14:13:25;18.10;99.90
63931;DHT22;50111;48.114;-2.066;2022-10-17T14:15:51;18.10;99.90
63931;DHT22;50111;48.114;-2.066;2022-10-17T14:18:19;18.10;99.90
63931;DHT22;50111;48.114;-2.066;2022-10-17T14:20:45;18.10;99.90
63931;DHT22;50111;48.114;-2.066;2022-10-17T14:23:28;18.10;99.90
63931;DHT22;50111;48.114;-2.066;2022-10-17T14:26:05;18.10;99.90
63931;DHT22;50111;48.114;-2.066;2022-10-17T14:28:31;18.20;99.90
63931;DHT22;50111;48.114;-2.066;2022-10-17T14:33:42;18.20;99.90
63931;DHT22;50111;48.114;-2.066;2022-10-17T14:36:08;18.10;99.90
63931;DHT22;50111;48.114;-2.066;2022-10-17T14:38:34;18.10;99.90
63931;DHT22;50111;48.114;-2.066;2022-10-17T14:41:01;18.10;99.90
63931;DHT22;50111;48.114;-2.066;2022-10-17T14:43:28;18.10;99.90
63931;DHT22;50111;48.114;-2.066;2022-10-17T14:45:57;18.10;99.90
63931;DHT22;50111;48.114;-2.066;2022-10-17T14:48:23;18.10;99.90
63931;DHT22;50111;48.114;-2.066;2022-10-17T14:53:34;18.10;99.90
63931;DHT22;50111;48.114;-2.066;2022-10-17T14:56:00;18.10;99.90
63931;DHT22;50111;48.114;-2.066;2022-10-17T14:58:28;18.20;99.90
63931;DHT22;50111;48.114;-2.066;2022-10-17T15:00:54;18.20;99.90
63931;DHT22;50111;48.114;-2.066;2022-10-17T15:03:20;18.20;99.90
63931;DHT22;50111;48.114;-2.066;2022-10-17T15:05:46;18.20;99.90
63931;DHT22;50111;48.114;-2.066;2022-10-17T15:08:12;18.20;99.90
63931;DHT22;50111;48.114;-2.066;2022-10-17T15:10:38;18.20;99.90
63931;DHT22;50111;48.114;-2.066;2022-10-17T15:13:06;18.20;99.90
63931;DHT22;50111;48.114;-2.066;2022-10-17T15:15:32;18.20;99.90
63931;DHT22;50111;48.114;-2.066;2022-10-17T15:17:57;18.20;99.90
63931;DHT22;50111;48.114;-2.066;2022-10-17T15:20:24;18.20;99.90
63931;DHT22;50111;48.114;-2.066;2022-10-17T15:22:55;18.20;99.90
63931;DHT22;50111;48.114;-2.066;2022-10-17T15:25:21;18.20;99.90
63931;DHT22;50111;48.114;-2.066;2022-10-17T15:27:47;18.20;99.90
63931;DHT22;50111;48.114;-2.066;2022-10-17T15:30:23;18.20;99.90
63931;DHT22;50111;48.114;-2.066;2022-10-17T15:32:49;18.20;99.90
63931;DHT22;50111;48.114;-2.066;2022-10-17T15:35:16;18.20;99.90
63931;DHT22;50111;48.114;-2.066;2022-10-17T15:37:41;18.20;99.90
63931;DHT22;50111;48.114;-2.066;2022-10-17T15:40:09;18.20;99.90
63931;DHT22;50111;48.114;-2.066;2022-10-17T15:42:37;18.20;99.90
63931;DHT22;50111;48.114;-2.066;2022-10-17T15:45:03;18.20;99.90
63931;DHT22;50111;48.114;-2.066;2022-10-17T15:47:29;18.10;99.90
63931;DHT22;50111;48.114;-2.066;2022-10-17T15:49:57;18.10;99.90
63931;DHT22;50111;48.114;-2.066;2022-10-17T15:52:23;18.10;99.90
63931;DHT22;50111;48.114;-2.066;2022-10-17T15:54:48;18.00;99.90
63931;DHT22;50111;48.114;-2.066;2022-10-17T15:57:18;18.00;99.90
63931;DHT22;50111;48.114;-2.066;2022-10-17T15:59:44;18.00;99.90
63931;DHT22;50111;48.114;-2.066;2022-10-17T16:02:14;17.90;99.90
63931;DHT22;50111;48.114;-2.066;2022-10-17T16:04:40;17.90;99.90
63931;DHT22;50111;48.114;-2.066;2022-10-17T16:07:06;17.80;99.90
63931;DHT22;50111;48.114;-2.066;2022-10-17T16:09:32;17.80;99.90
63931;DHT22;50111;48.114;-2.066;2022-10-17T16:11:59;17.80;99.90
63931;DHT22;50111;48.114;-2.066;2022-10-17T16:14:25;17.80;99.90
63931;DHT22;50111;48.114;-2.066;2022-10-17T16:16:50;17.80;99.90
63931;DHT22;50111;48.114;-2.066;2022-10-17T16:19:16;17.80;99.90
63931;DHT22;50111;48.114;-2.066;2022-10-17T16:21:41;17.80;99.90
63931;DHT22;50111;48.114;-2.066;2022-10-17T16:24:10;17.80;99.90
63931;DHT22;50111;48.114;-2.066;2022-10-17T16:26:39;17.70;99.90
63931;DHT22;50111;48.114;-2.066;2022-10-17T16:29:04;17.70;99.90
63931;DHT22;50111;48.114;-2.066;2022-10-17T16:31:31;17.70;99.90
63931;DHT22;50111;48.114;-2.066;2022-10-17T16:33:57;17.70;99.90
63931;DHT22;50111;48.114;-2.066;2022-10-17T16:36:23;17.60;99.90
63931;DHT22;50111;48.114;-2.066;2022-10-17T16:38:49;17.60;99.90
63931;DHT22;50111;48.114;-2.066;2022-10-17T16:41:18;17.60;99.90
63931;DHT22;50111;48.114;-2.066;2022-10-17T16:43:45;17.60;99.90
63931;DHT22;50111;48.114;-2.066;2022-10-17T16:46:10;17.60;99.90
63931;DHT22;50111;48.114;-2.066;2022-10-17T16:48:36;17.60;99.90
63931;DHT22;50111;48.114;-2.066;2022-10-17T16:51:01;17.60;99.90
63931;DHT22;50111;48.114;-2.066;2022-10-17T16:53:27;17.60;99.90
63931;DHT22;50111;48.114;-2.066;2022-10-17T16:56:01;17.60;99.90
63931;DHT22;50111;48.114;-2.066;2022-10-17T16:58:27;17.60;99.90
63931;DHT22;50111;48.114;-2.066;2022-10-17T17:00:55;17.50;99.90
63931;DHT22;50111;48.114;-2.066;2022-10-17T17:03:24;17.50;99.90
63931;DHT22;50111;48.114;-2.066;2022-10-17T17:05:49;17.50;99.90
63931;DHT22;50111;48.114;-2.066;2022-10-17T17:08:15;17.40;99.90
63931;DHT22;50111;48.114;-2.066;2022-10-17T17:10:44;17.40;99.90
63931;DHT22;50111;48.114;-2.066;2022-10-17T17:13:10;17.40;99.90